createdAt,value
2018-09-17T00:00:26.049Z,5.63
2018-09-17T00:02:54.610Z,5.70
2018-09-17T00:05:23.148Z,6.30
2018-09-17T00:07:51.680Z,6.17
2018-09-17T00:10:20.328Z,6.00
2018-09-17T00:12:48.867Z,6.10
2018-09-17T00:15:17.398Z,6.00
2018-09-17T00:17:45.935Z,6.13
2018-09-17T00:20:14.465Z,6.27
2018-09-17T00:22:42.987Z,5.50
2018-09-17T00:25:11.628Z,5.90
2018-09-17T00:27:40.194Z,6.13
2018-09-17T00:30:08.776Z,6.00
2018-09-17T00:32:37.368Z,5.83
2018-09-17T00:35:05.910Z,5.90
2018-09-17T00:37:34.477Z,5.80
2018-09-17T00:40:03.012Z,5.80
2018-09-17T00:42:31.540Z,5.60
2018-09-17T00:45:00.049Z,5.80
2018-09-17T00:47:28.602Z,5.87
2018-09-17T00:49:57.179Z,6.43
2018-09-17T00:52:25.694Z,5.77
2018-09-17T00:54:54.222Z,5.77
2018-09-17T00:57:22.771Z,5.53
2018-09-17T00:59:51.426Z,5.63
2018-09-17T01:02:19.927Z,6.00
2018-09-17T01:04:48.423Z,6.63
2018-09-17T01:07:17.001Z,6.20
2018-09-17T01:09:45.544Z,6.10
2018-09-17T01:12:15.356Z,6.03
2018-09-17T01:14:44.126Z,6.20
2018-09-17T01:19:57.946Z,6.40
2018-09-17T01:22:26.507Z,6.07
2018-09-17T01:24:55.011Z,6.33
2018-09-17T01:27:23.594Z,6.27
2018-09-17T01:29:52.091Z,6.33
2018-09-17T01:32:20.635Z,6.10
2018-09-17T01:34:49.184Z,5.90
2018-09-17T01:37:18.719Z,5.87
2018-09-17T01:39:47.273Z,5.97
2018-09-17T01:42:15.795Z,6.50
2018-09-17T01:44:44.358Z,6.57
2018-09-17T01:47:13.028Z,5.60
2018-09-17T01:49:41.573Z,6.00
2018-09-17T01:52:10.181Z,6.30
2018-09-17T01:54:38.679Z,6.27
2018-09-17T01:57:07.219Z,5.90
2018-09-17T01:59:35.751Z,5.70
2018-09-17T02:02:05.491Z,5.90
2018-09-17T02:04:34.035Z,6.07
2018-09-17T02:07:02.625Z,6.40
2018-09-17T02:09:31.190Z,5.70
2018-09-17T02:11:59.795Z,6.50
2018-09-17T02:14:28.344Z,6.27
2018-09-17T02:16:56.872Z,6.53
2018-09-17T02:19:25.459Z,6.07
2018-09-17T02:21:53.987Z,6.73
2018-09-17T02:24:22.689Z,6.50
2018-09-17T02:26:51.250Z,6.77
2018-09-17T02:29:19.857Z,6.87
2018-09-17T02:31:48.403Z,6.17
2018-09-17T02:34:17.096Z,6.50
2018-09-17T02:36:45.851Z,6.80
2018-09-17T02:39:15.126Z,6.83
2018-09-17T02:41:44.407Z,6.53
2018-09-17T02:44:14.029Z,6.23
2018-09-17T02:46:42.606Z,6.70
2018-09-17T02:49:11.262Z,6.43
2018-09-17T02:51:39.835Z,6.50
2018-09-17T02:54:08.417Z,6.70
2018-09-17T02:56:37.005Z,6.40
2018-09-17T02:59:05.559Z,6.03
2018-09-17T03:01:34.072Z,6.47
2018-09-17T03:04:02.704Z,7.07
2018-09-17T03:06:31.287Z,6.10
2018-09-17T03:08:59.885Z,6.17
2018-09-17T03:11:28.802Z,7.03
2018-09-17T03:13:57.357Z,6.40
2018-09-17T03:16:25.898Z,6.33
2018-09-17T03:18:55.742Z,6.00
2018-09-17T03:21:25.072Z,6.73
2018-09-17T03:23:53.886Z,5.93
2018-09-17T03:26:22.724Z,5.80
2018-09-17T03:28:51.298Z,5.93
2018-09-17T03:31:19.902Z,6.43
2018-09-17T03:33:48.461Z,6.10
2018-09-17T03:36:17.024Z,6.53
2018-09-17T03:38:50.098Z,6.40
2018-09-17T03:41:19.721Z,6.13
2018-09-17T03:43:52.370Z,6.17
2018-09-17T03:46:20.933Z,6.57
2018-09-17T03:48:49.735Z,6.40
2018-09-17T03:51:18.553Z,6.60
2018-09-17T03:53:47.104Z,5.87
2018-09-17T03:56:15.680Z,6.27
2018-09-17T03:58:44.265Z,6.27
2018-09-17T04:01:12.796Z,6.63
2018-09-17T04:03:41.438Z,6.30
2018-09-17T04:06:09.984Z,6.97
2018-09-17T04:08:38.542Z,6.50
2018-09-17T04:11:07.059Z,6.23
2018-09-17T04:13:35.694Z,6.80
2018-09-17T04:16:04.252Z,6.53
2018-09-17T04:18:32.862Z,6.40
2018-09-17T04:21:01.440Z,6.77
2018-09-17T04:23:32.794Z,6.10
2018-09-17T04:26:01.813Z,6.70
2018-09-17T04:28:30.444Z,6.40
2018-09-17T04:30:59.279Z,6.90
2018-09-17T04:33:29.286Z,7.20
2018-09-17T04:35:57.888Z,6.57
2018-09-17T04:38:26.461Z,6.37
2018-09-17T04:40:55.054Z,5.50
2018-09-17T04:43:23.666Z,6.03
2018-09-17T04:45:52.272Z,6.23
2018-09-17T04:48:20.975Z,6.13
2018-09-17T04:50:49.624Z,5.97
2018-09-17T04:53:18.310Z,6.30
2018-09-17T04:55:46.888Z,6.00
2018-09-17T04:58:15.539Z,6.90
2018-09-17T05:00:44.109Z,6.53
2018-09-17T05:03:13.706Z,6.23
2018-09-17T05:05:42.876Z,7.30
2018-09-17T05:08:11.458Z,6.43
2018-09-17T05:10:40.016Z,6.00
2018-09-17T05:13:08.707Z,6.03
2018-09-17T05:15:37.160Z,6.63
2018-09-17T05:18:06.031Z,6.07
2018-09-17T05:20:34.583Z,5.80
2018-09-17T05:23:03.171Z,6.40
2018-09-17T05:25:31.751Z,7.07
2018-09-17T05:28:00.356Z,7.13
2018-09-17T05:30:29.943Z,7.20
2018-09-17T05:32:58.516Z,7.20
2018-09-17T05:35:27.083Z,7.20
2018-09-17T05:37:55.751Z,6.77
2018-09-17T05:40:24.429Z,6.73
2018-09-17T05:42:52.966Z,6.90
2018-09-17T05:45:21.563Z,7.47
2018-09-17T05:47:50.230Z,7.13
2018-09-17T05:50:18.718Z,7.40
2018-09-17T05:52:47.315Z,7.57
2018-09-17T05:55:15.874Z,6.67
2018-09-17T05:57:44.432Z,7.67
2018-09-17T06:00:13.012Z,8.50
2018-09-17T06:02:41.615Z,7.90
2018-09-17T06:05:10.184Z,8.00
2018-09-17T06:07:38.783Z,8.03
2018-09-17T06:10:12.560Z,8.70
2018-09-17T06:12:41.110Z,9.00
2018-09-17T06:15:09.653Z,8.97
2018-09-17T06:17:38.345Z,9.00
2018-09-17T06:20:06.851Z,9.57
2018-09-17T06:22:35.446Z,9.83
2018-09-17T06:25:04.348Z,9.03
2018-09-17T06:27:32.869Z,9.00
2018-09-17T06:30:01.402Z,8.57
2018-09-17T06:32:30.004Z,9.33
2018-09-17T06:34:58.636Z,9.67
2018-09-17T06:37:27.162Z,8.93
2018-09-17T06:39:55.702Z,9.23
2018-09-17T06:42:24.274Z,10.30
2018-09-17T06:44:52.917Z,9.63
2018-09-17T06:47:22.388Z,9.50
2018-09-17T06:49:51.023Z,10.13
2018-09-17T06:52:19.585Z,10.63
2018-09-17T06:54:48.192Z,10.27
2018-09-17T06:57:16.767Z,9.80
2018-09-17T06:59:45.306Z,9.87
2018-09-17T07:02:13.955Z,10.70
2018-09-17T07:04:42.549Z,10.80
2018-09-17T07:07:11.763Z,10.80
2018-09-17T07:09:41.155Z,10.53
2018-09-17T07:12:09.858Z,11.43
2018-09-17T07:14:38.437Z,11.57
2018-09-17T07:17:07.041Z,11.47
2018-09-17T07:19:35.560Z,11.80
2018-09-17T07:22:04.112Z,11.30
2018-09-17T07:24:32.705Z,12.27
2018-09-17T07:27:01.215Z,12.27
2018-09-17T07:29:29.710Z,11.57
2018-09-17T07:31:58.194Z,12.40
2018-09-17T07:34:26.670Z,12.77
2018-09-17T07:36:55.179Z,13.03
2018-09-17T07:39:23.650Z,13.23
2018-09-17T07:41:52.395Z,13.67
2018-09-17T07:44:20.903Z,12.63
2018-09-17T07:46:49.394Z,13.23
2018-09-17T07:49:17.910Z,14.97
2018-09-17T07:51:46.394Z,14.37
2018-09-17T07:54:14.901Z,15.80
2018-09-17T07:56:43.798Z,15.57
2018-09-17T07:59:12.273Z,15.77
2018-09-17T08:01:40.854Z,14.33
2018-09-17T08:04:09.371Z,13.77
2018-09-17T08:06:37.880Z,16.50
2018-09-17T08:09:09.695Z,14.93
2018-09-17T08:11:38.311Z,15.23
2018-09-17T08:14:06.971Z,15.70
2018-09-17T08:16:35.696Z,16.53
2018-09-17T08:19:04.319Z,17.43
2018-09-17T08:21:32.835Z,17.00
2018-09-17T08:24:01.352Z,17.87
2018-09-17T08:26:29.887Z,19.27
2018-09-17T08:28:58.400Z,21.10
2018-09-17T08:31:26.924Z,18.03
2018-09-17T08:33:55.412Z,18.13
2018-09-17T08:36:23.940Z,19.17
2018-09-17T08:38:52.439Z,19.00
2018-09-17T08:41:20.939Z,18.60
2018-09-17T08:43:49.467Z,18.03
2018-09-17T08:46:17.979Z,20.60
2018-09-17T08:48:46.666Z,20.33
2018-09-17T08:51:15.176Z,18.30
2018-09-17T08:53:43.824Z,19.70
2018-09-17T08:56:17.395Z,20.57
2018-09-17T08:58:51.083Z,19.53
2018-09-17T09:01:24.891Z,18.77
2018-09-17T09:03:58.777Z,18.23
2018-09-17T09:07:33.380Z,18.23
2018-09-17T09:10:07.209Z,20.03
2018-09-17T09:12:40.243Z,20.07
2018-09-17T09:15:13.911Z,18.57
2018-09-17T09:17:42.404Z,18.87
2018-09-17T09:20:10.887Z,20.30
2018-09-17T09:22:39.419Z,18.00
2018-09-17T09:25:07.993Z,17.87
2018-09-17T09:27:36.470Z,18.67
2018-09-17T09:30:05.130Z,18.73
2018-09-17T09:32:33.655Z,18.63
2018-09-17T09:35:02.163Z,18.37
2018-09-17T09:37:30.675Z,17.00
2018-09-17T09:39:59.163Z,18.83
2018-09-17T09:42:27.652Z,18.30
2018-09-17T09:44:56.165Z,19.17
2018-09-17T09:47:24.647Z,19.43
2018-09-17T09:49:53.130Z,16.87
2018-09-17T09:52:21.618Z,17.47
2018-09-17T09:54:50.095Z,17.43
2018-09-17T09:57:18.621Z,19.43
2018-09-17T09:59:47.105Z,17.43
2018-09-17T10:03:23.629Z,18.03
2018-09-17T10:05:52.107Z,17.43
2018-09-17T10:08:20.609Z,17.33
2018-09-17T10:10:54.412Z,17.33
2018-09-17T10:13:28.230Z,16.67
2018-09-17T10:15:58.061Z,18.33
2018-09-17T10:18:31.970Z,16.60
2018-09-17T10:21:02.198Z,17.30
2018-09-17T10:23:30.791Z,17.40
2018-09-17T10:25:59.551Z,17.80
2018-09-17T10:28:29.007Z,17.73
2018-09-17T10:30:57.987Z,16.20
2018-09-17T10:33:26.687Z,17.13
2018-09-17T10:35:55.330Z,16.57
2018-09-17T10:38:23.924Z,15.90
2018-09-17T10:40:52.577Z,16.27
2018-09-17T10:43:21.193Z,15.30
2018-09-17T10:45:49.748Z,15.07
2018-09-17T10:48:18.314Z,15.60
2018-09-17T10:50:46.919Z,14.83
2018-09-17T10:53:15.625Z,15.37
2018-09-17T10:55:44.201Z,14.27
2018-09-17T10:58:12.797Z,13.93
2018-09-17T11:00:41.463Z,13.87
2018-09-17T11:03:10.007Z,13.73
2018-09-17T11:05:38.562Z,13.47
2018-09-17T11:08:07.231Z,12.83
2018-09-17T11:10:35.822Z,13.73
2018-09-17T11:13:04.388Z,13.40
2018-09-17T11:15:38.170Z,12.87
2018-09-17T11:18:06.827Z,12.40
2018-09-17T11:20:35.494Z,13.03
2018-09-17T11:23:04.022Z,12.53
2018-09-17T11:25:32.544Z,12.33
2018-09-17T11:28:01.055Z,12.17
2018-09-17T11:30:29.563Z,12.67
2018-09-17T11:32:58.080Z,12.13
2018-09-17T11:35:26.557Z,12.27
2018-09-17T11:37:55.045Z,12.83
2018-09-17T11:40:23.545Z,11.93
2018-09-17T11:42:52.039Z,11.13
2018-09-17T11:45:20.523Z,11.03
2018-09-17T11:47:49.028Z,12.10
2018-09-17T11:50:17.527Z,12.73
2018-09-17T11:52:46.028Z,11.43
2018-09-17T11:55:14.518Z,11.17
2018-09-17T11:57:43.016Z,11.77
2018-09-17T12:00:11.559Z,10.87
2018-09-17T12:02:44.173Z,11.77
2018-09-17T12:05:16.783Z,11.60
2018-09-17T12:07:45.278Z,11.27
2018-09-17T12:10:13.793Z,10.97
2018-09-17T12:12:42.292Z,11.47
2018-09-17T12:15:10.812Z,10.93
2018-09-17T12:17:39.294Z,11.37
2018-09-17T12:20:07.776Z,11.17
2018-09-17T12:22:36.315Z,10.80
2018-09-17T12:25:04.818Z,11.30
2018-09-17T12:27:33.511Z,10.70
2018-09-17T12:30:02.114Z,11.00
2018-09-17T12:32:30.736Z,13.17
2018-09-17T12:34:59.316Z,11.47
2018-09-17T12:37:30.065Z,11.37
2018-09-17T12:39:58.707Z,11.40
2018-09-17T12:42:27.383Z,11.50
2018-09-17T12:44:56.017Z,11.17
2018-09-17T12:47:24.621Z,12.37
2018-09-17T12:49:53.227Z,11.17
2018-09-17T12:52:21.937Z,11.30
2018-09-17T12:54:50.564Z,10.87
2018-09-17T12:57:19.258Z,10.90
2018-09-17T12:59:47.862Z,11.73
2018-09-17T13:02:16.906Z,10.83
2018-09-17T13:04:45.801Z,11.23
2018-09-17T13:07:14.409Z,10.90
2018-09-17T13:09:43.064Z,10.93
2018-09-17T13:12:11.664Z,10.10
2018-09-17T13:14:40.311Z,10.70
2018-09-17T13:17:08.944Z,11.40
2018-09-17T13:19:37.553Z,10.27
2018-09-17T13:22:06.159Z,9.90
2018-09-17T13:24:44.630Z,10.40
2018-09-17T13:27:13.160Z,9.23
2018-09-17T13:29:41.792Z,10.10
2018-09-17T13:32:10.467Z,10.63
2018-09-17T13:34:39.621Z,10.17
2018-09-17T13:37:09.364Z,10.87
2018-09-17T13:39:37.940Z,10.83
2018-09-17T13:42:06.577Z,10.97
2018-09-17T13:44:35.197Z,11.50
2018-09-17T13:47:03.960Z,11.73
2018-09-17T13:49:32.508Z,11.47
2018-09-17T13:52:01.117Z,11.20
2018-09-17T13:54:29.907Z,11.20
2018-09-17T13:56:58.570Z,10.87
2018-09-17T13:59:27.211Z,10.50
2018-09-17T14:01:55.760Z,10.70
2018-09-17T14:04:24.458Z,10.50
2018-09-17T14:06:53.058Z,10.63
2018-09-17T14:09:21.663Z,10.17
2018-09-17T14:11:50.307Z,10.53
2018-09-17T14:14:18.937Z,11.10
2018-09-17T14:16:47.575Z,10.53
2018-09-17T14:19:16.172Z,11.00
2018-09-17T14:21:44.741Z,10.93
2018-09-17T14:24:13.312Z,11.37
2018-09-17T14:26:41.858Z,10.53
2018-09-17T14:29:11.031Z,10.83
2018-09-17T14:32:45.545Z,9.40
2018-09-17T14:35:14.195Z,10.00
2018-09-17T14:37:45.694Z,10.87
2018-09-17T14:40:14.335Z,9.70
2018-09-17T14:42:42.982Z,10.60
2018-09-17T14:45:11.583Z,9.93
2018-09-17T14:47:40.222Z,9.80
2018-09-17T14:50:08.795Z,10.13
2018-09-17T14:52:37.484Z,10.57
2018-09-17T14:55:06.158Z,9.63
2018-09-17T14:57:34.732Z,10.50
2018-09-17T15:00:03.418Z,9.30
2018-09-17T15:02:32.169Z,9.90
2018-09-17T15:05:00.722Z,9.80
2018-09-17T15:07:29.324Z,9.63
2018-09-17T15:09:58.238Z,10.03
2018-09-17T15:12:26.855Z,9.10
2018-09-17T15:14:55.609Z,9.33
2018-09-17T15:17:24.184Z,9.27
2018-09-17T15:19:52.698Z,9.37
2018-09-17T15:22:21.384Z,9.20
2018-09-17T15:24:49.986Z,9.20
2018-09-17T15:27:18.470Z,9.27
2018-09-17T15:29:46.955Z,9.63
2018-09-17T15:32:15.520Z,9.43
2018-09-17T15:34:43.973Z,8.90
2018-09-17T15:37:12.565Z,9.70
2018-09-17T15:39:41.043Z,9.50
2018-09-17T15:42:09.582Z,9.40
2018-09-17T15:44:38.081Z,9.17
2018-09-17T15:47:06.620Z,9.27
2018-09-17T15:49:35.195Z,8.43
2018-09-17T15:52:03.670Z,9.00
2018-09-17T15:54:32.191Z,9.03
2018-09-17T15:57:00.716Z,8.90
2018-09-17T15:59:29.219Z,10.13
2018-09-17T16:01:57.728Z,9.30
2018-09-17T16:04:26.303Z,9.33
2018-09-17T16:06:54.814Z,8.60
2018-09-17T16:09:23.445Z,8.90
2018-09-17T16:11:52.223Z,8.73
2018-09-17T16:14:20.703Z,9.33
2018-09-17T16:16:49.233Z,8.73
2018-09-17T16:19:17.838Z,8.73
2018-09-17T16:21:46.383Z,9.03
2018-09-17T16:24:14.906Z,9.07
2018-09-17T16:26:43.443Z,8.50
2018-09-17T16:29:11.928Z,8.70
2018-09-17T16:31:40.449Z,8.83
2018-09-17T16:34:09.012Z,8.53
2018-09-17T16:36:37.566Z,8.33
2018-09-17T16:39:08.398Z,8.50
2018-09-17T16:41:37.039Z,8.63
2018-09-17T16:44:05.599Z,8.73
2018-09-17T16:46:34.719Z,8.30
2018-09-17T16:49:03.425Z,8.63
2018-09-17T16:51:32.346Z,9.23
2018-09-17T16:54:00.849Z,8.60
2018-09-17T16:56:29.358Z,9.00
2018-09-17T16:58:57.987Z,8.57
2018-09-17T17:01:26.461Z,9.10
2018-09-17T17:03:54.975Z,7.57
2018-09-17T17:06:23.723Z,8.53
2018-09-17T17:08:52.274Z,8.50
2018-09-17T17:11:20.893Z,8.80
2018-09-17T17:13:49.424Z,8.23
2018-09-17T17:16:17.985Z,8.03
2018-09-17T17:18:46.492Z,7.90
2018-09-17T17:21:14.910Z,9.03
2018-09-17T17:23:43.504Z,9.93
2018-09-17T17:26:12.002Z,9.67
2018-09-17T17:28:41.355Z,9.37
2018-09-17T17:31:09.951Z,8.33
2018-09-17T17:33:38.455Z,9.27
2018-09-17T17:36:07.023Z,8.97
2018-09-17T17:38:35.715Z,8.97
2018-09-17T17:41:04.255Z,9.13
2018-09-17T17:43:32.745Z,9.33
2018-09-17T17:46:01.350Z,9.00
2018-09-17T17:48:29.802Z,8.77
2018-09-17T17:50:58.352Z,9.27
2018-09-17T17:53:26.907Z,8.60
2018-09-17T17:55:55.382Z,8.00
2018-09-17T17:58:23.953Z,9.20
2018-09-17T18:00:52.448Z,8.73
2018-09-17T18:03:21.022Z,8.93
2018-09-17T18:05:49.675Z,8.67
2018-09-17T18:08:18.245Z,9.50
2018-09-17T18:10:46.857Z,9.13
2018-09-17T18:13:15.636Z,8.90
2018-09-17T18:15:44.183Z,7.97
2018-09-17T18:18:12.779Z,8.07
2018-09-17T18:20:41.411Z,8.87
2018-09-17T18:23:09.968Z,8.90
2018-09-17T18:25:38.543Z,9.03
2018-09-17T18:28:07.241Z,9.17
2018-09-17T18:30:35.868Z,8.27
2018-09-17T18:33:05.123Z,8.50
2018-09-17T18:35:33.682Z,8.20
2018-09-17T18:38:02.322Z,8.37
2018-09-17T18:40:30.867Z,8.83
2018-09-17T18:42:59.535Z,8.03
2018-09-17T18:45:27.990Z,8.83
2018-09-17T18:47:56.719Z,8.03
2018-09-17T18:50:25.270Z,8.20
2018-09-17T18:52:53.966Z,8.83
2018-09-17T18:55:22.531Z,8.23
2018-09-17T18:57:51.153Z,8.57
2018-09-17T19:00:19.743Z,8.40
2018-09-17T19:02:48.452Z,8.33
2018-09-17T19:05:17.134Z,8.77
2018-09-17T19:07:45.744Z,8.47
2018-09-17T19:10:14.311Z,8.23
2018-09-17T19:12:43.021Z,7.70
2018-09-17T19:15:16.881Z,8.23
2018-09-17T19:17:45.394Z,8.27
2018-09-17T19:20:14.010Z,8.30
2018-09-17T19:22:47.798Z,7.80
2018-09-17T19:25:16.709Z,7.97
2018-09-17T19:27:50.427Z,8.60
2018-09-17T19:30:20.229Z,8.87
2018-09-17T19:32:48.756Z,8.77
2018-09-17T19:35:17.327Z,8.20
2018-09-17T19:37:51.108Z,8.17
2018-09-17T19:40:21.268Z,8.17
2018-09-17T19:42:50.644Z,8.03
2018-09-17T19:45:24.378Z,8.47
2018-09-17T19:47:53.390Z,8.60
2018-09-17T19:50:27.115Z,8.67
2018-09-17T19:52:55.817Z,8.13
2018-09-17T19:55:24.350Z,8.10
2018-09-17T19:57:58.101Z,8.13
2018-09-17T20:00:26.794Z,8.57
2018-09-17T20:02:55.289Z,7.77
2018-09-17T20:05:29.359Z,8.13
2018-09-17T20:07:57.882Z,8.73
2018-09-17T20:10:26.493Z,8.40
2018-09-17T20:12:55.042Z,7.90
2018-09-17T20:15:23.598Z,7.90
2018-09-17T20:17:52.189Z,7.70
2018-09-17T20:20:20.857Z,8.10
2018-09-17T20:22:49.453Z,8.17
2018-09-17T20:25:18.003Z,8.23
2018-09-17T20:27:46.579Z,8.40
2018-09-17T20:30:15.218Z,8.23
2018-09-17T20:32:43.996Z,8.07
2018-09-17T20:35:12.595Z,8.00
2018-09-17T20:37:41.170Z,7.90
2018-09-17T20:40:09.677Z,8.27
2018-09-17T20:42:38.191Z,8.13
2018-09-17T20:45:06.784Z,7.93
2018-09-17T20:47:35.300Z,8.07
2018-09-17T20:50:03.820Z,7.63
2018-09-17T20:52:32.458Z,8.30
2018-09-17T20:55:01.130Z,8.00
2018-09-17T20:57:29.677Z,8.33
2018-09-17T20:59:58.697Z,8.13
2018-09-17T21:02:27.218Z,8.53
2018-09-17T21:04:55.807Z,8.23
2018-09-17T21:07:24.383Z,8.70
2018-09-17T21:09:52.935Z,8.50
2018-09-17T21:12:21.560Z,8.60
2018-09-17T21:14:50.117Z,8.13
2018-09-17T21:17:18.657Z,7.30
2018-09-17T21:19:47.226Z,8.27
2018-09-17T21:22:15.896Z,8.17
2018-09-17T21:24:45.392Z,7.63
2018-09-17T21:27:13.948Z,7.50
2018-09-17T21:29:42.545Z,8.10
2018-09-17T21:32:11.149Z,7.40
2018-09-17T21:34:39.681Z,7.87
2018-09-17T21:37:08.239Z,7.90
2018-09-17T21:39:36.769Z,8.17
2018-09-17T21:42:05.286Z,7.73
2018-09-17T21:44:33.843Z,8.60
2018-09-17T21:47:02.379Z,8.10
2018-09-17T21:49:30.920Z,9.23
2018-09-17T21:51:59.498Z,7.33
2018-09-17T21:54:28.060Z,8.37
2018-09-17T21:56:56.610Z,7.53
2018-09-17T21:59:25.273Z,7.87
2018-09-17T22:01:53.898Z,7.87
2018-09-17T22:04:22.496Z,7.87
2018-09-17T22:06:50.991Z,7.93
2018-09-17T22:09:19.527Z,7.90
2018-09-17T22:11:48.152Z,8.03
2018-09-17T22:14:16.832Z,7.43
2018-09-17T22:16:45.318Z,8.97
2018-09-17T22:19:13.886Z,7.83
2018-09-17T22:21:42.439Z,7.57
2018-09-17T22:24:11.020Z,7.80
2018-09-17T22:26:39.560Z,8.07
2018-09-17T22:29:08.304Z,8.23
2018-09-17T22:31:36.781Z,7.90
2018-09-17T22:34:05.311Z,7.80
2018-09-17T22:36:33.834Z,7.37
2018-09-17T22:39:02.474Z,7.60
2018-09-17T22:41:31.014Z,8.93
2018-09-17T22:43:59.543Z,8.03
2018-09-17T22:46:28.172Z,7.93
2018-09-17T22:48:56.747Z,7.70
2018-09-17T22:51:25.967Z,8.07
2018-09-17T22:53:55.050Z,7.50
2018-09-17T22:56:23.602Z,7.87
2018-09-17T22:58:52.129Z,7.67
2018-09-17T23:01:20.691Z,8.27
2018-09-17T23:03:49.237Z,8.43
2018-09-17T23:06:17.711Z,7.80
2018-09-17T23:08:46.225Z,8.17
2018-09-17T23:11:14.757Z,8.27
2018-09-17T23:13:43.315Z,8.53
2018-09-17T23:16:11.833Z,8.50
2018-09-17T23:18:40.333Z,8.57
2018-09-17T23:21:08.930Z,8.17
2018-09-17T23:23:37.476Z,8.20
2018-09-17T23:26:06.060Z,8.90
2018-09-17T23:28:34.626Z,7.43
2018-09-17T23:31:03.210Z,8.80
2018-09-17T23:33:31.814Z,8.40
2018-09-17T23:36:00.411Z,9.53
2018-09-17T23:38:29.922Z,9.37
2018-09-17T23:40:58.504Z,9.50
2018-09-17T23:43:27.114Z,9.20
2018-09-17T23:45:55.598Z,9.77
2018-09-17T23:48:24.162Z,9.60
2018-09-17T23:50:52.699Z,9.07
2018-09-17T23:53:21.253Z,8.97
2018-09-17T23:55:49.802Z,9.67
2018-09-17T23:58:18.315Z,9.90
